Terminal Aerodrome Forecast
Issued by NWS Shreveport, LA

Home | Current Version | Previous Version | Text Only | Print | Product List | Glossary On
Versions: 1 2 3 4 5 6 7 8 9 10 11 12 13 14 15 16 17 18 19
000
FTUS44 KSHV 261154
TAFGGG
TAF
KGGG 261154Z 2612/2712 16006KT P6SM OVC010
     FM261600 16013G22KT P6SM BKN035
     FM261900 17013G22KT P6SM VCTS BKN040CB OVC080
     FM262000 17013G22KT 4SM -TSRA BR OVC040CB
     FM270200 16009KT P6SM VCTS BKN040CB OVC080
     FM270900 16009KT P6SM VCTS BKN015 BKN040CB=

USA.gov is the U.S. government's official web portal to all federal, state and local government web resources and services.